Decoded Metar for DTTB (BIZERTE in TUNISIA) (IATA:N/A) | Meteo·Mobile Aviation Weather
aviador You're here:

DTTB Decoded Metar

BIZERTE in TUNISIA
Report Time2019-04-25 20:00:00
UTC Time2019-04-25 21:44:01
Flight Rules Old
WindCalm
Visibility8000 m
Phenomena:N/A
Clouds:Few 020 Hf
Expected CloudBase > 800 ft AGL from Temp-Dew spread
CeilingNone
Temp16°C (ISA +1)
Dew Point14°C (88% RH)
QNH1017 hPa
Density Alt207 ft
Elevation10 ft
Report Wrong Elevation
Raw Report
METAR DTTB 252000Z 00000KT 8000 FEW020 16/14 Q1017=

Extra information for DTTB:More info

Metar Taf Metar & Taf Last 4 Metars F.Rules Stats Wind Profile Meteogram Temp Stats Airport Information Weather charts Add Link Nearby VenuesMetar ALERT Operation Metar Decoded Social comments